Time;durP1;ratioP1;P1;durP2;ratioP2;P2;SDS_P1;SDS_P2;PMS_P1;PMS_P2;Temp;Humidity;BMP_temperature;BMP_pressure;BME280_temperature;BME280_humidity;BME280_pressure;Samples;Min_cycle;Max_cycle;Signal;HPM_P1;HPM_P2
2022/06/13 00:01:15;;;;;;;25.17;7.57;;;;;;;;;;4865826;29;20056;-69
2022/06/13 00:03:44;;;;;;;28.50;7.82;;;;;;;;;;4864009;29;20107;-70
2022/06/13 00:06:09;;;;;;;25.52;7.80;;;;;;;;;;4863951;29;20440;-68
2022/06/13 00:08:35;;;;;;;25.42;6.55;;;;;;;;;;4864896;29;20056;-69
2022/06/13 00:11:00;;;;;;;26.27;6.75;;;;;;;;;;4868552;29;20123;-68
2022/06/13 00:13:26;;;;;;;19.45;6.65;;;;;;;;;;4869379;29;20040;-68
2022/06/13 00:15:51;;;;;;;24.88;6.70;;;;;;;;;;4867915;29;20180;-67
2022/06/13 00:18:17;;;;;;;18.90;6.13;;;;;;;;;;4867591;29;20055;-67
2022/06/13 00:20:42;;;;;;;21.52;6.45;;;;;;;;;;4851759;29;20050;-67
2022/06/13 00:23:07;;;;;;;23.35;6.78;;;;;;;;;;4868885;29;20060;-67
2022/06/13 00:25:32;;;;;;;22.25;6.07;;;;;;;;;;4868025;29;20864;-69
2022/06/13 00:27:58;;;;;;;23.75;5.90;;;;;;;;;;4869498;29;20079;-69
2022/06/13 00:30:24;;;;;;;19.65;6.15;;;;;;;;;;4868352;29;20040;-68
2022/06/13 00:32:50;;;;;;;24.55;6.05;;;;;;;;;;4854409;29;20030;-68
2022/06/13 00:35:15;;;;;;;22.17;6.07;;;;;;;;;;4867392;29;21873;-68
2022/06/13 00:37:43;;;;;;;27.27;6.40;;;;;;;;;;4852157;29;20032;-67
2022/06/13 00:40:09;;;;;;;25.42;6.00;;;;;;;;;;4867573;29;20123;-68
2022/06/13 00:42:35;;;;;;;22.25;5.82;;;;;;;;;;4868322;29;25155;-68
2022/06/13 00:45:09;;;;;;;20.17;5.95;;;;;;;;;;4867625;29;20124;-67
2022/06/13 00:47:38;;;;;;;23.20;5.93;;;;;;;;;;4867730;29;20052;-69
2022/06/13 00:50:06;;;;;;;21.17;6.50;;;;;;;;;;4845551;29;20028;-68
2022/06/13 00:52:55;;;;;;;22.60;5.68;;;;;;;;;;4868198;29;20147;-68
2022/06/13 00:55:29;;;;;;;18.60;5.50;;;;;;;;;;4849450;29;20119;-69
2022/06/13 00:57:54;;;;;;;19.23;5.20;;;;;;;;;;4866378;29;20778;-69
2022/06/13 01:00:19;;;;;;;17.65;5.28;;;;;;;;;;4867812;29;20060;-69
2022/06/13 01:02:49;;;;;;;19.83;6.13;;;;;;;;;;4867359;29;20111;-69
2022/06/13 01:05:19;;;;;;;16.13;5.22;;;;;;;;;;4867222;29;21143;-67
2022/06/13 01:07:47;;;;;;;20.15;5.18;;;;;;;;;;4866054;29;21362;-68
2022/06/13 01:12:56;;;;;;;18.48;4.53;;;;;;;;;;4868892;29;20148;-67
2022/06/13 01:15:37;;;;;;;18.98;4.90;;;;;;;;;;4831207;29;20123;-69
2022/06/13 01:18:21;;;;;;;19.55;4.72;;;;;;;;;;4867247;29;20040;-69
2022/06/13 01:20:46;;;;;;;16.38;4.70;;;;;;;;;;4865875;29;20167;-69
2022/06/13 01:23:30;;;;;;;22.75;5.38;;;;;;;;;;4866432;29;20155;-69
2022/06/13 01:25:55;;;;;;;16.27;4.72;;;;;;;;;;4866364;29;20055;-69
2022/06/13 01:28:43;;;;;;;16.45;4.07;;;;;;;;;;4847534;29;22413;-68
2022/06/13 01:31:08;;;;;;;16.58;4.57;;;;;;;;;;4865928;29;20040;-68
2022/06/13 01:33:40;;;;;;;13.18;4.20;;;;;;;;;;4868797;29;20786;-68
2022/06/13 01:36:14;;;;;;;19.75;4.53;;;;;;;;;;4867390;29;20818;-68
2022/06/13 01:38:56;;;;;;;12.88;3.97;;;;;;;;;;4848407;29;20055;-69
2022/06/13 01:41:28;;;;;;;13.75;3.83;;;;;;;;;;4867375;29;20043;-68
2022/06/13 01:44:11;;;;;;;14.10;4.10;;;;;;;;;;4865872;29;20143;-69
2022/06/13 01:46:44;;;;;;;14.63;3.80;;;;;;;;;;4864580;29;20143;-67
2022/06/13 01:49:25;;;;;;;15.98;4.00;;;;;;;;;;4865561;29;20774;-69
2022/06/13 01:51:50;;;;;;;16.15;3.92;;;;;;;;;;4866296;29;20071;-69
2022/06/13 01:54:27;;;;;;;14.45;4.03;;;;;;;;;;4867729;29;20822;-68
2022/06/13 01:57:04;;;;;;;14.32;4.32;;;;;;;;;;4866744;29;20037;-68
2022/06/13 01:59:29;;;;;;;16.55;3.80;;;;;;;;;;4846211;29;21108;-68
2022/06/13 02:02:15;;;;;;;11.55;3.35;;;;;;;;;;4866613;29;20175;-67
2022/06/13 02:04:44;;;;;;;13.65;2.97;;;;;;;;;;4866169;29;20052;-69
2022/06/13 02:07:17;;;;;;;9.65;3.00;;;;;;;;;;4865583;29;20040;-68
2022/06/13 02:09:50;;;;;;;13.75;3.30;;;;;;;;;;4848979;29;20040;-69
2022/06/13 02:12:16;;;;;;;9.88;2.50;;;;;;;;;;4866461;29;20040;-69
2022/06/13 02:14:41;;;;;;;11.80;2.63;;;;;;;;;;4866329;29;20044;-69
2022/06/13 02:17:14;;;;;;;11.90;2.80;;;;;;;;;;4865564;29;20044;-69
2022/06/13 02:19:51;;;;;;;9.10;2.50;;;;;;;;;;4865112;29;20040;-70
2022/06/13 02:22:19;;;;;;;11.90;2.83;;;;;;;;;;4865925;29;20068;-68
2022/06/13 02:24:49;;;;;;;10.15;2.80;;;;;;;;;;4834509;29;20040;-69
2022/06/13 02:27:18;;;;;;;8.00;2.70;;;;;;;;;;4866737;29;21497;-69
2022/06/13 02:29:48;;;;;;;8.07;2.72;;;;;;;;;;4847923;29;20099;-70
2022/06/13 02:32:16;;;;;;;10.90;2.88;;;;;;;;;;4864907;29;20143;-69
2022/06/13 02:34:48;;;;;;;9.00;2.95;;;;;;;;;;4864668;29;20079;-69
2022/06/13 02:37:14;;;;;;;9.32;2.55;;;;;;;;;;4864877;29;20043;-69
2022/06/13 02:39:42;;;;;;;10.07;2.75;;;;;;;;;;4864118;29;20048;-69
2022/06/13 02:42:16;;;;;;;13.13;2.78;;;;;;;;;;4865539;29;20032;-69
2022/06/13 02:44:42;;;;;;;11.93;2.53;;;;;;;;;;4866614;29;22494;-69
2022/06/13 02:47:10;;;;;;;11.18;2.55;;;;;;;;;;4865005;29;20044;-69
2022/06/13 02:49:35;;;;;;;10.82;2.50;;;;;;;;;;4863125;29;20039;-69
2022/06/13 02:52:18;;;;;;;12.02;2.70;;;;;;;;;;4865272;29;20501;-69
2022/06/13 02:54:48;;;;;;;12.82;2.20;;;;;;;;;;4855475;29;20599;-69
2022/06/13 02:57:25;;;;;;;10.48;2.40;;;;;;;;;;4860952;29;20101;-69
2022/06/13 03:00:00;;;;;;;11.57;2.55;;;;;;;;;;4843694;29;20142;-70
2022/06/13 03:02:44;;;;;;;7.72;2.45;;;;;;;;;;4863467;29;20079;-69
2022/06/13 03:05:25;;;;;;;12.95;2.83;;;;;;;;;;4844045;29;20036;-69
2022/06/13 03:08:14;;;;;;;7.97;2.92;;;;;;;;;;4856379;29;20040;-69
2022/06/13 03:10:46;;;;;;;15.27;3.15;;;;;;;;;;4862664;29;20922;-69
2022/06/13 03:13:11;;;;;;;;;;;;;;;;;;4865124;29;20139;-68
2022/06/13 03:15:39;;;;;;;8.30;2.72;;;;;;;;;;4864193;29;20636;-69
2022/06/13 03:18:08;;;;;;;11.77;2.85;;;;;;;;;;4863428;29;20170;-70
2022/06/13 03:20:43;;;;;;;11.75;2.53;;;;;;;;;;4861422;29;20048;-70
2022/06/13 03:23:13;;;;;;;13.45;2.78;;;;;;;;;;4863979;29;21730;-69
2022/06/13 03:25:39;;;;;;;10.63;2.40;;;;;;;;;;4862045;29;20036;-70
2022/06/13 03:28:09;;;;;;;15.73;2.55;;;;;;;;;;4846718;29;20569;-70
2022/06/13 03:30:37;;;;;;;10.98;2.20;;;;;;;;;;4860814;29;20044;-69
2022/06/13 03:35:55;;;;;;;9.18;2.08;;;;;;;;;;4863185;29;20482;-70
2022/06/13 03:38:25;;;;;;;13.38;2.25;;;;;;;;;;4861662;29;20146;-70
2022/06/13 03:40:53;;;;;;;10.05;2.10;;;;;;;;;;4845264;29;20040;-70
2022/06/13 03:43:26;;;;;;;12.40;2.63;;;;;;;;;;4866542;29;20044;-69
2022/06/13 03:45:56;;;;;;;13.13;1.98;;;;;;;;;;4866541;29;20044;-70
2022/06/13 03:48:29;;;;;;;15.32;2.85;;;;;;;;;;4867014;29;20051;-70
2022/06/13 03:51:04;;;;;;;14.20;2.17;;;;;;;;;;4846953;29;20040;-70
2022/06/13 03:53:34;;;;;;;8.93;2.28;;;;;;;;;;4861680;29;20048;-70
2022/06/13 03:56:05;;;;;;;13.20;2.20;;;;;;;;;;4867531;29;20841;-69
2022/06/13 03:58:33;;;;;;;10.18;2.00;;;;;;;;;;4866330;29;20154;-69
2022/06/13 04:01:05;;;;;;;12.38;1.98;;;;;;;;;;4845377;29;21065;-67
2022/06/13 04:03:30;;;;;;;;;;;;;;;;;;4867987;29;21034;-69
2022/06/13 04:06:01;;;;;;;9.52;2.03;;;;;;;;;;4868792;29;19962;-69
2022/06/13 04:08:28;;;;;;;11.02;1.88;;;;;;;;;;4866003;29;20135;-69
2022/06/13 04:11:14;;;;;;;9.10;1.60;;;;;;;;;;4866911;29;20055;-66
2022/06/13 04:13:42;;;;;;;8.65;1.83;;;;;;;;;;4850720;29;20147;-68
2022/06/13 04:16:12;;;;;;;9.60;1.92;;;;;;;;;;4826399;29;20048;-68
2022/06/13 04:19:08;;;;;;;13.38;2.42;;;;;;;;;;4851227;29;20044;-69
2022/06/13 04:21:45;;;;;;;16.52;2.03;;;;;;;;;;4859902;29;20036;-69
2022/06/13 04:24:11;;;;;;;17.63;2.65;;;;;;;;;;4866457;29;20047;-68
2022/06/13 04:26:59;;;;;;;13.60;2.75;;;;;;;;;;4867770;29;20068;-68
2022/06/13 04:29:36;;;;;;;13.73;2.50;;;;;;;;;;4834684;29;20072;-68
2022/06/13 04:32:06;;;;;;;11.68;2.58;;;;;;;;;;4866781;29;20098;-67
2022/06/13 04:34:37;;;;;;;12.13;1.98;;;;;;;;;;4830491;29;21346;-68
2022/06/13 04:37:04;;;;;;;11.50;2.70;;;;;;;;;;4862318;29;20071;-67
2022/06/13 04:39:31;;;;;;;14.80;2.20;;;;;;;;;;4870288;29;20323;-69
2022/06/13 04:41:59;;;;;;;14.90;2.42;;;;;;;;;;4851707;29;20119;-68
2022/06/13 04:44:26;;;;;;;16.15;2.55;;;;;;;;;;4865527;29;20806;-67
2022/06/13 04:46:53;;;;;;;12.25;2.40;;;;;;;;;;4846122;29;20045;-68
2022/06/13 04:49:24;;;;;;;21.60;2.65;;;;;;;;;;4861865;29;22328;-68
2022/06/13 04:51:50;;;;;;;12.18;2.50;;;;;;;;;;4865993;29;20032;-69
2022/06/13 04:54:18;;;;;;;16.05;2.63;;;;;;;;;;4867582;29;20150;-68
2022/06/13 04:56:44;;;;;;;16.75;2.95;;;;;;;;;;4865803;29;20111;-68
2022/06/13 04:59:13;;;;;;;15.82;2.30;;;;;;;;;;4866962;29;20155;-68
2022/06/13 05:01:41;;;;;;;12.73;2.35;;;;;;;;;;4864623;29;20040;-67
2022/06/13 05:04:08;;;;;;;18.58;3.00;;;;;;;;;;4861521;29;20127;-67
2022/06/13 05:06:37;;;;;;;22.98;2.75;;;;;;;;;;4868874;29;20047;-68
2022/06/13 05:09:25;;;;;;;17.08;2.92;;;;;;;;;;4867040;29;20040;-69
2022/06/13 05:11:56;;;;;;;16.38;2.75;;;;;;;;;;4862227;29;20054;-68
2022/06/13 05:14:21;;;;;;;19.15;2.47;;;;;;;;;;4867853;29;20036;-68
2022/06/13 05:16:56;;;;;;;22.55;2.60;;;;;;;;;;4867474;29;22467;-67
2022/06/13 05:19:24;;;;;;;15.57;2.03;;;;;;;;;;4846236;29;20964;-66
2022/06/13 05:22:02;;;;;;;18.50;2.85;;;;;;;;;;4866051;29;20893;-69
2022/06/13 05:24:28;;;;;;;17.52;2.55;;;;;;;;;;4867155;29;20044;-67
2022/06/13 05:26:53;;;;;;;24.60;2.92;;;;;;;;;;4867262;29;21664;-68
2022/06/13 05:29:19;;;;;;;12.25;1.80;;;;;;;;;;4865346;29;20066;-69
2022/06/13 05:31:44;;;;;;;14.63;1.98;;;;;;;;;;4848255;29;20043;-68
2022/06/13 05:34:26;;;;;;;15.63;2.20;;;;;;;;;;4849362;29;20040;-67
2022/06/13 05:36:51;;;;;;;15.35;2.65;;;;;;;;;;4867766;29;20086;-68
2022/06/13 05:39:17;;;;;;;17.70;1.90;;;;;;;;;;4865457;29;20044;-67
2022/06/13 05:41:42;;;;;;;12.68;1.77;;;;;;;;;;4865176;29;20103;-67
2022/06/13 05:44:08;;;;;;;12.85;2.00;;;;;;;;;;4849925;29;20040;-67
2022/06/13 05:46:36;;;;;;;18.60;2.70;;;;;;;;;;4850908;29;20749;-69
2022/06/13 05:49:04;;;;;;;13.13;1.92;;;;;;;;;;4866486;29;20044;-67
2022/06/13 05:51:29;;;;;;;18.45;2.55;;;;;;;;;;4865455;29;20084;-67
2022/06/13 05:53:58;;;;;;;11.27;1.90;;;;;;;;;;4866230;29;20155;-67
2022/06/13 05:56:26;;;;;;;20.60;2.58;;;;;;;;;;4867468;29;20252;-66
2022/06/13 05:58:55;;;;;;;18.35;2.80;;;;;;;;;;4866695;29;20048;-66
2022/06/13 06:01:20;;;;;;;8.50;1.70;;;;;;;;;;4864168;29;20094;-67
2022/06/13 06:03:45;;;;;;;16.80;2.67;;;;;;;;;;4865012;29;20530;-67
2022/06/13 06:06:12;;;;;;;10.10;1.90;;;;;;;;;;4845404;29;20040;-68
2022/06/13 06:08:39;;;;;;;14.40;1.83;;;;;;;;;;4866877;29;20048;-67
2022/06/13 06:11:05;;;;;;;10.93;1.80;;;;;;;;;;4865053;29;20620;-67
2022/06/13 06:13:30;;;;;;;12.38;2.08;;;;;;;;;;4849763;29;20047;-67
2022/06/13 06:15:57;;;;;;;12.73;2.42;;;;;;;;;;4866811;29;20036;-66
2022/06/13 06:18:23;;;;;;;14.75;2.17;;;;;;;;;;4862814;29;20068;-67
2022/06/13 06:20:48;;;;;;;16.48;2.22;;;;;;;;;;4864326;29;20042;-67
2022/06/13 06:23:13;;;;;;;22.75;2.42;;;;;;;;;;4861713;29;20762;-69
2022/06/13 06:25:39;;;;;;;20.05;2.50;;;;;;;;;;4848176;29;20792;-65
2022/06/13 06:28:16;;;;;;;15.52;2.30;;;;;;;;;;4982013;28;20409;-68
2022/06/13 06:30:42;;;;;;;13.93;2.75;;;;;;;;;;4981164;28;20444;-66
2022/06/13 06:33:07;;;;;;;12.23;1.90;;;;;;;;;;4982760;28;20511;-67
2022/06/13 06:35:33;;;;;;;16.58;2.45;;;;;;;;;;4981981;28;20034;-67
2022/06/13 06:37:59;;;;;;;14.23;1.98;;;;;;;;;;4983598;28;20045;-65
2022/06/13 06:40:25;;;;;;;12.00;2.30;;;;;;;;;;4980673;28;20478;-66
2022/06/13 06:42:51;;;;;;;13.63;2.20;;;;;;;;;;4981426;28;20037;-67
2022/06/13 06:45:18;;;;;;;9.95;1.65;;;;;;;;;;4982233;28;20123;-67
2022/06/13 06:47:44;;;;;;;16.30;2.25;;;;;;;;;;4982001;28;20521;-67
2022/06/13 06:50:15;;;;;;;9.77;1.83;;;;;;;;;;4981943;28;20067;-67
2022/06/13 06:52:41;;;;;;;18.23;2.20;;;;;;;;;;4981691;28;20072;-68
2022/06/13 07:00:39;;;;;;;15.05;2.53;;;;;;;;;;4962428;28;20092;-66
2022/06/13 07:03:05;;;;;;;17.52;2.65;;;;;;;;;;4962485;28;20038;-67
2022/06/13 07:05:30;;;;;;;17.23;2.65;;;;;;;;;;4961092;28;21834;-65
2022/06/13 07:07:55;;;;;;;13.02;2.22;;;;;;;;;;4961454;28;20152;-67
2022/06/13 07:10:23;;;;;;;10.30;2.08;;;;;;;;;;4962040;28;20046;-65
2022/06/13 07:12:49;;;;;;;17.02;1.83;;;;;;;;;;4992824;28;20183;-66
2022/06/13 07:15:14;;;;;;;16.67;2.40;;;;;;;;;;4979961;28;20042;-67
2022/06/13 07:17:40;;;;;;;19.17;2.25;;;;;;;;;;4992778;28;20597;-66
2022/06/13 07:20:05;;;;;;;14.00;2.22;;;;;;;;;;4959707;28;20125;-66
2022/06/13 07:22:31;;;;;;;15.57;2.15;;;;;;;;;;4962011;28;20129;-66
2022/06/13 07:24:56;;;;;;;16.13;2.10;;;;;;;;;;4992128;28;20129;-67
2022/06/13 07:27:22;;;;;;;14.60;2.15;;;;;;;;;;4966361;28;20049;-67
2022/06/13 07:29:47;;;;;;;15.98;2.22;;;;;;;;;;4961836;28;20673;-67
2022/06/13 07:32:15;;;;;;;14.70;2.35;;;;;;;;;;4948410;28;20207;-66
2022/06/13 07:34:47;;;;;;;12.98;2.25;;;;;;;;;;4961919;28;20124;-67
2022/06/13 07:37:14;;;;;;;13.15;1.90;;;;;;;;;;4963470;28;20103;-66
2022/06/13 07:39:39;;;;;;;24.13;2.65;;;;;;;;;;4950619;28;20045;-68
2022/06/13 07:42:05;;;;;;;13.02;2.17;;;;;;;;;;4957692;28;20046;-65
2022/06/13 07:44:37;;;;;;;20.33;1.90;;;;;;;;;;4951035;28;20065;-66
2022/06/13 07:47:04;;;;;;;10.30;1.70;;;;;;;;;;4951084;28;20125;-68
2022/06/13 07:49:31;;;;;;;11.95;1.73;;;;;;;;;;4950381;28;20049;-66
2022/06/13 07:51:57;;;;;;;11.15;2.03;;;;;;;;;;4952015;28;20034;-66
2022/06/13 07:54:23;;;;;;;17.10;2.03;;;;;;;;;;4945351;28;21616;-67
2022/06/13 07:56:48;;;;;;;10.95;1.80;;;;;;;;;;4952129;28;20310;-67
2022/06/13 07:59:15;;;;;;;14.63;2.05;;;;;;;;;;4980759;28;20340;-68
2022/06/13 08:01:41;;;;;;;11.68;1.80;;;;;;;;;;4951270;28;20045;-67
2022/06/13 08:04:06;;;;;;;16.35;2.90;;;;;;;;;;4949800;28;20146;-68
2022/06/13 08:06:32;;;;;;;10.15;1.80;;;;;;;;;;4951254;28;20042;-67
2022/06/13 08:08:57;;;;;;;13.35;2.13;;;;;;;;;;4950735;28;20039;-68
2022/06/13 08:11:34;;;;;;;7.30;1.50;;;;;;;;;;4950309;28;20049;-66
2022/06/13 08:13:59;;;;;;;14.75;2.22;;;;;;;;;;4950013;28;20094;-67
2022/06/13 08:16:25;;;;;;;12.35;2.15;;;;;;;;;;4950535;28;20103;-67
2022/06/13 08:18:53;;;;;;;12.77;1.70;;;;;;;;;;4951758;28;21626;-65
2022/06/13 08:21:19;;;;;;;13.68;2.38;;;;;;;;;;4950768;28;20081;-66
2022/06/13 08:23:45;;;;;;;11.82;2.08;;;;;;;;;;4951249;28;20804;-65
2022/06/13 08:26:10;;;;;;;10.75;1.83;;;;;;;;;;4950339;28;20054;-66
2022/06/13 08:28:35;;;;;;;13.63;2.00;;;;;;;;;;4950931;28;20034;-72
2022/06/13 08:31:06;;;;;;;13.13;2.22;;;;;;;;;;4951625;28;20037;-69
2022/06/13 08:33:31;;;;;;;7.55;1.65;;;;;;;;;;4964952;28;23585;-74
2022/06/13 08:35:58;;;;;;;10.93;2.00;;;;;;;;;;4969428;28;20037;-73
2022/06/13 08:38:25;;;;;;;10.45;2.13;;;;;;;;;;5002113;28;20094;-67
2022/06/13 08:41:00;;;;;;;9.43;1.80;;;;;;;;;;4971284;28;20034;-74
2022/06/13 08:43:33;;;;;;;10.95;2.20;;;;;;;;;;4971986;28;20033;-74
2022/06/13 08:46:12;;;;;;;14.07;2.13;;;;;;;;;;4967656;28;20049;-71
2022/06/13 08:48:40;;;;;;;;;;;;;;;;;;4968692;28;20026;-74
2022/06/13 08:51:10;;;;;;;13.93;2.00;;;;;;;;;;4968057;28;20461;-73
2022/06/13 08:53:52;;;;;;;10.05;1.73;;;;;;;;;;4971138;28;20269;-71
2022/06/13 08:56:19;;;;;;;12.63;1.80;;;;;;;;;;4969054;28;20026;-71
2022/06/13 08:58:50;;;;;;;8.77;1.48;;;;;;;;;;4970297;28;20041;-72
2022/06/13 09:01:18;;;;;;;15.52;1.80;;;;;;;;;;4969501;28;20065;-71
2022/06/13 09:03:55;;;;;;;10.00;1.85;;;;;;;;;;5001430;28;20084;-74
2022/06/13 09:06:23;;;;;;;9.90;2.00;;;;;;;;;;4967816;28;20064;-74
2022/06/13 09:09:13;;;;;;;10.85;1.77;;;;;;;;;;4969516;28;20045;-72
2022/06/13 09:11:51;;;;;;;14.10;2.13;;;;;;;;;;4969517;28;20045;-73
2022/06/13 09:14:28;;;;;;;11.27;1.90;;;;;;;;;;4973396;28;20041;-76
2022/06/13 09:17:13;;;;;;;12.38;1.73;;;;;;;;;;4980038;28;20429;-73
2022/06/13 09:19:43;;;;;;;12.63;2.47;;;;;;;;;;4945785;28;20271;-72
2022/06/13 09:22:19;;;;;;;14.45;2.53;;;;;;;;;;4946821;28;20038;-71
2022/06/13 09:24:52;;;;;;;9.80;2.15;;;;;;;;;;4949907;28;20836;-73
2022/06/13 09:27:18;;;;;;;14.38;1.92;;;;;;;;;;4948178;28;20061;-75
2022/06/13 09:30:02;;;;;;;10.93;2.03;;;;;;;;;;4950776;28;20023;-73
2022/06/13 09:32:32;;;;;;;10.63;1.77;;;;;;;;;;4946548;28;20041;-73
2022/06/13 09:35:08;;;;;;;14.18;2.28;;;;;;;;;;4950161;28;20608;-72
2022/06/13 09:37:36;;;;;;;14.60;2.47;;;;;;;;;;4978214;28;22359;-70
2022/06/13 09:40:01;;;;;;;18.10;2.20;;;;;;;;;;4946619;28;20997;-72
2022/06/13 09:42:37;;;;;;;9.70;1.92;;;;;;;;;;4948688;28;20034;-73
2022/06/13 09:45:25;;;;;;;10.95;2.40;;;;;;;;;;4948559;28;20080;-72
2022/06/13 09:48:12;;;;;;;12.65;1.85;;;;;;;;;;4948786;28;20049;-71
2022/06/13 09:50:50;;;;;;;12.15;2.22;;;;;;;;;;4947586;28;21055;-72
2022/06/13 09:53:29;;;;;;;13.52;2.25;;;;;;;;;;4945070;28;20112;-72
2022/06/13 09:56:10;;;;;;;13.30;2.50;;;;;;;;;;4948631;28;20117;-76
2022/06/13 09:58:41;;;;;;;12.35;2.17;;;;;;;;;;4946594;28;21001;-71
2022/06/13 10:01:09;;;;;;;14.80;2.30;;;;;;;;;;4995232;28;20770;-72
2022/06/13 10:03:41;;;;;;;19.55;2.55;;;;;;;;;;4965899;28;20790;-73
2022/06/13 10:06:09;;;;;;;21.48;2.83;;;;;;;;;;4995293;28;20030;-73
2022/06/13 10:08:47;;;;;;;12.93;2.40;;;;;;;;;;4996285;28;20120;-73
2022/06/13 10:11:28;;;;;;;14.88;2.20;;;;;;;;;;4966484;28;20586;-73
2022/06/13 10:14:04;;;;;;;15.63;2.22;;;;;;;;;;4964527;28;20030;-74
2022/06/13 10:16:44;;;;;;;13.02;2.13;;;;;;;;;;4948818;28;20046;-74
2022/06/13 10:19:12;;;;;;;14.65;2.30;;;;;;;;;;4948019;28;20156;-72
2022/06/13 10:21:58;;;;;;;14.93;2.13;;;;;;;;;;4947083;28;20049;-70
2022/06/13 10:24:30;;;;;;;12.23;1.83;;;;;;;;;;4963508;28;20041;-71
2022/06/13 10:26:55;;;;;;;;;;;;;;;;;;4967074;28;20092;-71
2022/06/13 10:29:40;;;;;;;13.52;2.42;;;;;;;;;;4967616;28;20543;-71
2022/06/13 10:32:11;;;;;;;10.85;1.80;;;;;;;;;;4948679;28;20137;-70
2022/06/13 10:34:56;;;;;;;15.02;2.38;;;;;;;;;;4969025;28;20108;-73
2022/06/13 10:37:24;;;;;;;13.77;2.00;;;;;;;;;;4967739;28;20030;-72
2022/06/13 10:39:51;;;;;;;13.05;2.10;;;;;;;;;;4968190;28;20185;-73
2022/06/13 10:42:20;;;;;;;11.93;2.47;;;;;;;;;;4967639;28;22698;-72
2022/06/13 10:44:48;;;;;;;10.50;2.13;;;;;;;;;;4997796;28;20146;-74
2022/06/13 10:47:23;;;;;;;18.33;2.70;;;;;;;;;;4968086;28;20156;-71
2022/06/13 10:49:52;;;;;;;11.25;1.90;;;;;;;;;;4967942;28;20125;-72
2022/06/13 10:52:21;;;;;;;11.57;1.90;;;;;;;;;;4967968;28;20115;-71
2022/06/13 10:54:48;;;;;;;13.40;1.98;;;;;;;;;;4967681;28;20037;-71
2022/06/13 10:57:16;;;;;;;12.52;2.30;;;;;;;;;;4998655;28;20044;-67
2022/06/13 10:59:41;;;;;;;10.60;1.83;;;;;;;;;;4967245;28;20038;-73
2022/06/13 11:02:19;;;;;;;12.23;2.08;;;;;;;;;;4968510;28;20046;-70
2022/06/13 11:04:45;;;;;;;11.45;2.42;;;;;;;;;;4967448;28;20041;-72
2022/06/13 11:07:13;;;;;;;12.25;2.22;;;;;;;;;;4966145;28;20073;-73
2022/06/13 11:09:44;;;;;;;12.77;2.10;;;;;;;;;;4965049;28;20036;-71
2022/06/13 11:12:13;;;;;;;12.38;2.30;;;;;;;;;;4999045;28;20037;-74
2022/06/13 11:22:59;;;;;;;14.65;2.40;;;;;;;;;;4971834;28;20034;-71
2022/06/13 11:25:26;;;;;;;13.20;2.47;;;;;;;;;;4971644;28;20033;-72
2022/06/13 11:28:07;;;;;;;13.30;2.20;;;;;;;;;;4971866;28;20076;-72
2022/06/13 11:30:36;;;;;;;15.02;2.55;;;;;;;;;;4952085;28;20038;-73
2022/06/13 11:33:04;;;;;;;15.60;2.65;;;;;;;;;;4951600;28;20099;-72
2022/06/13 11:35:37;;;;;;;17.00;2.75;;;;;;;;;;4957124;28;20990;-70
2022/06/13 11:38:17;;;;;;;15.93;2.40;;;;;;;;;;4950323;28;22364;-71
2022/06/13 11:40:45;;;;;;;16.00;2.65;;;;;;;;;;4952464;28;20039;-73
2022/06/13 11:43:29;;;;;;;13.93;1.92;;;;;;;;;;4952111;28;20154;-72
2022/06/13 11:45:54;;;;;;;;;;;;;;;;;;4953452;28;20038;-74
2022/06/13 11:48:19;;;;;;;9.18;1.88;;;;;;;;;;4952652;28;20049;-71
2022/06/13 11:50:45;;;;;;;20.52;3.10;;;;;;;;;;4960867;28;20372;-68
2022/06/13 11:55:56;;;;;;;12.52;2.33;;;;;;;;;;4970564;28;20034;-69
2022/06/13 11:58:30;;;;;;;19.40;2.85;;;;;;;;;;4971520;28;20038;-69
2022/06/13 12:01:03;;;;;;;13.40;2.42;;;;;;;;;;4950875;28;20042;-68
2022/06/13 12:03:29;;;;;;;16.17;2.50;;;;;;;;;;4968499;28;20044;-67
2022/06/13 12:05:59;;;;;;;12.82;2.55;;;;;;;;;;5001690;28;20041;-69
2022/06/13 12:08:26;;;;;;;12.68;2.42;;;;;;;;;;4951541;28;20034;-71
2022/06/13 12:10:55;;;;;;;19.80;2.78;;;;;;;;;;4951302;28;20063;-70
2022/06/13 12:13:22;;;;;;;15.88;2.88;;;;;;;;;;4965629;28;22234;-69
2022/06/13 12:16:00;;;;;;;16.48;3.08;;;;;;;;;;4951590;28;20040;-70
2022/06/13 12:18:35;;;;;;;18.80;2.55;;;;;;;;;;4952384;28;20120;-69
2022/06/13 12:21:22;;;;;;;13.73;3.05;;;;;;;;;;4951159;28;20118;-69
2022/06/13 12:23:52;;;;;;;21.45;2.92;;;;;;;;;;4970099;28;20033;-72
2022/06/13 12:26:20;;;;;;;17.05;2.92;;;;;;;;;;4966914;28;20030;-69
2022/06/13 12:28:52;;;;;;;23.65;3.33;;;;;;;;;;4970637;28;20046;-70
2022/06/13 12:31:33;;;;;;;19.15;3.05;;;;;;;;;;4969808;28;20569;-68
2022/06/13 12:34:17;;;;;;;17.92;2.70;;;;;;;;;;4971331;28;20034;-68
2022/06/13 12:36:43;;;;;;;18.33;2.88;;;;;;;;;;4970564;28;20087;-68
2022/06/13 12:39:11;;;;;;;22.65;3.22;;;;;;;;;;4968406;28;20030;-69
2022/06/13 12:41:56;;;;;;;15.23;2.75;;;;;;;;;;4970325;28;20111;-68
2022/06/13 12:44:21;;;;;;;13.70;2.78;;;;;;;;;;4970463;28;20030;-68
2022/06/13 12:46:50;;;;;;;14.30;2.38;;;;;;;;;;4968626;28;20216;-67
2022/06/13 12:49:18;;;;;;;12.02;2.50;;;;;;;;;;4973960;28;20037;-69
2022/06/13 12:52:04;;;;;;;14.40;2.50;;;;;;;;;;4988185;28;20026;-69
2022/06/13 12:54:30;;;;;;;14.63;2.58;;;;;;;;;;4972964;28;20042;-71
2022/06/13 12:57:11;;;;;;;13.38;2.70;;;;;;;;;;5002286;28;20092;-66
2022/06/13 12:59:42;;;;;;;14.15;2.20;;;;;;;;;;4970441;28;20040;-71
2022/06/13 13:02:10;;;;;;;14.95;2.92;;;;;;;;;;4967063;28;20037;-67
2022/06/13 13:04:35;;;;;;;19.92;3.00;;;;;;;;;;4970643;28;20044;-66
2022/06/13 13:07:27;;;;;;;25.63;2.72;;;;;;;;;;4972500;28;20141;-76
2022/06/13 13:10:24;;;;;;;17.25;2.50;;;;;;;;;;4975989;28;20065;-68
2022/06/13 13:13:01;;;;;;;19.98;3.05;;;;;;;;;;4937692;28;20045;-73
2022/06/13 13:15:30;;;;;;;16.17;2.70;;;;;;;;;;4950518;28;20030;-70
2022/06/13 13:18:01;;;;;;;16.30;3.00;;;;;;;;;;4946652;28;20149;-68
2022/06/13 13:20:44;;;;;;;16.77;2.83;;;;;;;;;;4943870;28;20136;-69
2022/06/13 13:23:22;;;;;;;14.10;2.30;;;;;;;;;;4975817;28;20194;-68
2022/06/13 13:25:59;;;;;;;14.27;2.28;;;;;;;;;;4950228;28;20490;-68
2022/06/13 13:28:34;;;;;;;13.05;2.63;;;;;;;;;;4946095;28;20640;-68
2022/06/13 13:31:03;;;;;;;13.63;2.60;;;;;;;;;;4963706;28;20246;-67
2022/06/13 13:33:28;;;;;;;16.77;3.00;;;;;;;;;;4965597;28;20627;-67
2022/06/13 13:36:19;;;;;;;12.23;2.28;;;;;;;;;;4964665;28;20038;-71
2022/06/13 13:38:47;;;;;;;17.10;3.00;;;;;;;;;;4951898;28;20459;-71
2022/06/13 13:41:15;;;;;;;17.13;3.00;;;;;;;;;;4965603;28;20064;-71
2022/06/13 13:43:44;;;;;;;12.77;2.45;;;;;;;;;;4966194;28;20048;-70
2022/06/13 13:46:18;;;;;;;14.68;2.80;;;;;;;;;;4965687;28;20616;-71
2022/06/13 13:48:46;;;;;;;16.10;2.35;;;;;;;;;;4946179;28;20169;-71
2022/06/13 13:51:17;;;;;;;17.30;3.28;;;;;;;;;;4951233;28;20271;-71
2022/06/13 13:53:47;;;;;;;14.48;2.80;;;;;;;;;;4947094;28;20782;-71
2022/06/13 13:56:17;;;;;;;16.38;2.90;;;;;;;;;;4945993;28;20065;-69
2022/06/13 13:58:44;;;;;;;13.80;2.40;;;;;;;;;;4945177;28;20342;-69
2022/06/13 14:01:22;;;;;;;19.30;2.75;;;;;;;;;;4947312;28;20352;-69
2022/06/13 14:03:56;;;;;;;17.52;3.05;;;;;;;;;;4945631;28;21186;-69
2022/06/13 14:06:29;;;;;;;14.98;2.47;;;;;;;;;;4941028;28;20041;-69
2022/06/13 14:08:55;;;;;;;15.75;2.90;;;;;;;;;;4948900;28;20026;-68
2022/06/13 14:11:20;;;;;;;17.85;3.10;;;;;;;;;;4947333;28;20035;-69
2022/06/13 14:13:46;;;;;;;14.25;2.70;;;;;;;;;;4968758;28;20026;-68
2022/06/13 14:16:21;;;;;;;16.92;2.88;;;;;;;;;;4947959;28;20594;-68
2022/06/13 14:18:56;;;;;;;18.42;2.60;;;;;;;;;;4948924;28;20903;-71
2022/06/13 14:21:22;;;;;;;15.43;2.60;;;;;;;;;;4947787;28;20041;-68
2022/06/13 14:23:54;;;;;;;16.25;2.70;;;;;;;;;;4947399;28;20038;-67
2022/06/13 14:26:33;;;;;;;12.10;2.38;;;;;;;;;;4963469;28;20023;-68
2022/06/13 14:29:03;;;;;;;16.48;2.40;;;;;;;;;;4966939;28;20042;-71
2022/06/13 14:31:28;;;;;;;17.27;2.55;;;;;;;;;;4999443;28;20089;-70
2022/06/13 14:36:47;;;;;;;15.70;2.50;;;;;;;;;;4997392;28;20041;-69
2022/06/13 14:39:31;;;;;;;13.10;2.42;;;;;;;;;;4964895;28;20041;-69
2022/06/13 14:42:11;;;;;;;11.73;2.15;;;;;;;;;;4964741;28;20037;-68
2022/06/13 14:44:46;;;;;;;11.82;2.28;;;;;;;;;;4963448;28;20052;-68
2022/06/13 14:47:22;;;;;;;14.23;2.67;;;;;;;;;;4965542;28;20969;-71
2022/06/13 14:49:52;;;;;;;15.57;2.78;;;;;;;;;;5000281;28;20775;-69
2022/06/13 14:52:18;;;;;;;19.45;2.97;;;;;;;;;;4970012;28;20116;-71
2022/06/13 14:55:02;;;;;;;11.65;2.35;;;;;;;;;;4966197;28;20030;-71
2022/06/13 14:57:27;;;;;;;18.58;2.83;;;;;;;;;;4965267;28;20056;-70
2022/06/13 15:00:12;;;;;;;14.10;2.53;;;;;;;;;;4999869;28;21157;-71
2022/06/13 15:02:58;;;;;;;15.23;2.40;;;;;;;;;;4968554;28;20044;-70
2022/06/13 15:05:32;;;;;;;14.35;2.38;;;;;;;;;;4956846;28;20034;-69
2022/06/13 15:08:26;;;;;;;13.10;2.38;;;;;;;;;;4969279;28;20053;-70
2022/06/13 15:10:54;;;;;;;15.32;2.33;;;;;;;;;;4969187;28;20034;-70
2022/06/13 15:13:23;;;;;;;11.18;2.45;;;;;;;;;;4969376;28;20139;-70
2022/06/13 15:15:52;;;;;;;11.35;2.40;;;;;;;;;;4971887;28;20038;-70
2022/06/13 15:18:19;;;;;;;12.00;2.60;;;;;;;;;;4990807;28;20034;-71
2022/06/13 15:20:46;;;;;;;14.82;2.55;;;;;;;;;;4967856;28;20036;-68